sensor_id;sensor_type;location;lat;lon;timestamp;temperature;humidity
45115;DHT22;30877;43.706;10.780;2023-08-06T00:01:23;21.80;96.70
45115;DHT22;30877;43.706;10.780;2023-08-06T00:03:52;21.70;96.70
45115;DHT22;30877;43.706;10.780;2023-08-06T00:06:20;21.60;96.70
45115;DHT22;30877;43.706;10.780;2023-08-06T00:08:50;21.70;96.70
45115;DHT22;30877;43.706;10.780;2023-08-06T00:11:18;21.60;96.70
45115;DHT22;30877;43.706;10.780;2023-08-06T00:13:46;21.50;96.70
45115;DHT22;30877;43.706;10.780;2023-08-06T00:16:14;21.40;96.70
45115;DHT22;30877;43.706;10.780;2023-08-06T00:18:42;21.30;96.70
45115;DHT22;30877;43.706;10.780;2023-08-06T00:21:11;21.30;96.70
45115;DHT22;30877;43.706;10.780;2023-08-06T00:23:42;21.30;96.70
45115;DHT22;30877;43.706;10.780;2023-08-06T00:26:11;21.30;96.70
45115;DHT22;30877;43.706;10.780;2023-08-06T00:28:40;21.30;96.70
45115;DHT22;30877;43.706;10.780;2023-08-06T00:31:08;21.30;96.70
45115;DHT22;30877;43.706;10.780;2023-08-06T00:33:36;21.30;96.70
45115;DHT22;30877;43.706;10.780;2023-08-06T00:36:05;21.20;96.70
45115;DHT22;30877;43.706;10.780;2023-08-06T00:38:34;21.30;96.70
45115;DHT22;30877;43.706;10.780;2023-08-06T00:41:02;21.20;96.70
45115;DHT22;30877;43.706;10.780;2023-08-06T00:43:32;21.20;96.70
45115;DHT22;30877;43.706;10.780;2023-08-06T00:46:01;21.20;96.70
45115;DHT22;30877;43.706;10.780;2023-08-06T00:48:30;21.20;96.70
45115;DHT22;30877;43.706;10.780;2023-08-06T00:50:59;21.20;96.70
45115;DHT22;30877;43.706;10.780;2023-08-06T00:53:30;21.10;96.70
45115;DHT22;30877;43.706;10.780;2023-08-06T00:55:59;21.10;96.70
45115;DHT22;30877;43.706;10.780;2023-08-06T00:58:27;21.10;96.70
45115;DHT22;30877;43.706;10.780;2023-08-06T01:00:57;21.10;96.70
45115;DHT22;30877;43.706;10.780;2023-08-06T01:03:25;21.00;96.70
45115;DHT22;30877;43.706;10.780;2023-08-06T01:05:54;20.90;96.70
45115;DHT22;30877;43.706;10.780;2023-08-06T01:08:30;20.90;96.70
45115;DHT22;30877;43.706;10.780;2023-08-06T01:11:17;20.80;96.70
45115;DHT22;30877;43.706;10.780;2023-08-06T01:13:54;20.80;96.70
45115;DHT22;30877;43.706;10.780;2023-08-06T01:16:27;20.90;96.70
45115;DHT22;30877;43.706;10.780;2023-08-06T01:18:58;20.80;96.70
45115;DHT22;30877;43.706;10.780;2023-08-06T01:21:28;20.80;96.70
45115;DHT22;30877;43.706;10.780;2023-08-06T01:23:56;20.80;96.70
45115;DHT22;30877;43.706;10.780;2023-08-06T01:26:29;20.70;96.70
45115;DHT22;30877;43.706;10.780;2023-08-06T01:29:02;20.70;96.70
45115;DHT22;30877;43.706;10.780;2023-08-06T01:31:36;20.70;96.70
45115;DHT22;30877;43.706;10.780;2023-08-06T01:34:09;20.70;96.70
45115;DHT22;30877;43.706;10.780;2023-08-06T01:36:40;20.60;96.70
45115;DHT22;30877;43.706;10.780;2023-08-06T01:39:15;20.50;96.70
45115;DHT22;30877;43.706;10.780;2023-08-06T01:41:44;20.50;96.70
45115;DHT22;30877;43.706;10.780;2023-08-06T01:44:13;20.50;96.70
45115;DHT22;30877;43.706;10.780;2023-08-06T01:46:42;20.40;96.70
45115;DHT22;30877;43.706;10.780;2023-08-06T01:49:11;20.20;96.70
45115;DHT22;30877;43.706;10.780;2023-08-06T01:51:49;20.20;96.70
45115;DHT22;30877;43.706;10.780;2023-08-06T01:54:25;20.20;96.70
45115;DHT22;30877;43.706;10.780;2023-08-06T01:56:57;20.10;96.70
45115;DHT22;30877;43.706;10.780;2023-08-06T01:59:27;20.20;96.70
45115;DHT22;30877;43.706;10.780;2023-08-06T02:01:57;20.20;96.70
45115;DHT22;30877;43.706;10.780;2023-08-06T02:04:30;20.10;96.70
45115;DHT22;30877;43.706;10.780;2023-08-06T02:07:01;20.20;96.70
45115;DHT22;30877;43.706;10.780;2023-08-06T02:09:30;20.20;96.70
45115;DHT22;30877;43.706;10.780;2023-08-06T02:11:59;20.00;96.70
45115;DHT22;30877;43.706;10.780;2023-08-06T02:14:28;20.10;96.70
45115;DHT22;30877;43.706;10.780;2023-08-06T02:16:57;20.10;96.70
45115;DHT22;30877;43.706;10.780;2023-08-06T02:19:27;20.10;96.70
45115;DHT22;30877;43.706;10.780;2023-08-06T02:21:55;20.00;96.70
45115;DHT22;30877;43.706;10.780;2023-08-06T02:24:27;20.00;96.70
45115;DHT22;30877;43.706;10.780;2023-08-06T02:26:56;20.00;96.70
45115;DHT22;30877;43.706;10.780;2023-08-06T02:29:25;20.00;96.70
45115;DHT22;30877;43.706;10.780;2023-08-06T02:31:54;20.00;96.70
45115;DHT22;30877;43.706;10.780;2023-08-06T02:34:24;20.00;96.70
45115;DHT22;30877;43.706;10.780;2023-08-06T02:36:53;20.00;96.70
45115;DHT22;30877;43.706;10.780;2023-08-06T02:39:22;20.00;96.70
45115;DHT22;30877;43.706;10.780;2023-08-06T02:41:53;20.00;96.70
45115;DHT22;30877;43.706;10.780;2023-08-06T02:44:23;20.00;96.70
45115;DHT22;30877;43.706;10.780;2023-08-06T02:46:55;19.90;96.70
45115;DHT22;30877;43.706;10.780;2023-08-06T02:49:24;19.80;96.70
45115;DHT22;30877;43.706;10.780;2023-08-06T02:51:53;19.80;96.70
45115;DHT22;30877;43.706;10.780;2023-08-06T02:54:23;19.80;96.70
45115;DHT22;30877;43.706;10.780;2023-08-06T02:56:54;19.90;96.70
45115;DHT22;30877;43.706;10.780;2023-08-06T02:59:28;19.90;96.70
45115;DHT22;30877;43.706;10.780;2023-08-06T03:02:19;19.90;96.70
45115;DHT22;30877;43.706;10.780;2023-08-06T03:04:58;19.80;96.70
45115;DHT22;30877;43.706;10.780;2023-08-06T03:07:33;20.00;96.70
45115;DHT22;30877;43.706;10.780;2023-08-06T03:10:13;20.00;96.70
45115;DHT22;30877;43.706;10.780;2023-08-06T03:12:46;19.90;96.70
45115;DHT22;30877;43.706;10.780;2023-08-06T03:15:15;19.90;96.70
45115;DHT22;30877;43.706;10.780;2023-08-06T03:17:46;19.90;96.70
45115;DHT22;30877;43.706;10.780;2023-08-06T03:20:18;19.90;96.70
45115;DHT22;30877;43.706;10.780;2023-08-06T03:22:48;20.00;96.70
45115;DHT22;30877;43.706;10.780;2023-08-06T03:25:18;20.20;96.70
45115;DHT22;30877;43.706;10.780;2023-08-06T03:27:51;20.20;96.70
45115;DHT22;30877;43.706;10.780;2023-08-06T03:30:21;20.10;96.70
45115;DHT22;30877;43.706;10.780;2023-08-06T03:32:53;20.10;96.70
45115;DHT22;30877;43.706;10.780;2023-08-06T03:35:22;20.10;96.70
45115;DHT22;30877;43.706;10.780;2023-08-06T03:37:52;20.10;96.70
45115;DHT22;30877;43.706;10.780;2023-08-06T03:40:22;20.00;96.70
45115;DHT22;30877;43.706;10.780;2023-08-06T03:42:53;19.80;96.70
45115;DHT22;30877;43.706;10.780;2023-08-06T03:45:22;19.80;96.70
45115;DHT22;30877;43.706;10.780;2023-08-06T03:47:52;19.80;96.70
45115;DHT22;30877;43.706;10.780;2023-08-06T03:50:21;19.80;96.70
45115;DHT22;30877;43.706;10.780;2023-08-06T03:52:51;19.80;96.70
45115;DHT22;30877;43.706;10.780;2023-08-06T03:55:22;20.00;96.70
45115;DHT22;30877;43.706;10.780;2023-08-06T03:57:53;20.00;96.70
45115;DHT22;30877;43.706;10.780;2023-08-06T04:00:22;19.90;96.70
45115;DHT22;30877;43.706;10.780;2023-08-06T04:02:53;19.90;96.70
45115;DHT22;30877;43.706;10.780;2023-08-06T04:05:22;19.80;96.70
45115;DHT22;30877;43.706;10.780;2023-08-06T04:07:51;19.80;96.70
45115;DHT22;30877;43.706;10.780;2023-08-06T04:10:20;19.80;96.70
45115;DHT22;30877;43.706;10.780;2023-08-06T04:12:49;19.60;96.70
45115;DHT22;30877;43.706;10.780;2023-08-06T04:15:20;19.60;96.70
45115;DHT22;30877;43.706;10.780;2023-08-06T04:17:49;19.70;96.70
45115;DHT22;30877;43.706;10.780;2023-08-06T04:20:18;19.60;96.70
45115;DHT22;30877;43.706;10.780;2023-08-06T04:22:47;19.50;96.70
45115;DHT22;30877;43.706;10.780;2023-08-06T04:25:16;19.60;96.70
45115;DHT22;30877;43.706;10.780;2023-08-06T04:27:51;19.50;96.70
45115;DHT22;30877;43.706;10.780;2023-08-06T04:30:21;19.60;96.70
45115;DHT22;30877;43.706;10.780;2023-08-06T04:32:50;19.50;96.70
45115;DHT22;30877;43.706;10.780;2023-08-06T04:35:21;19.50;96.70
45115;DHT22;30877;43.706;10.780;2023-08-06T04:37:50;19.60;96.70
45115;DHT22;30877;43.706;10.780;2023-08-06T04:40:19;19.60;96.70
45115;DHT22;30877;43.706;10.780;2023-08-06T04:42:48;19.50;96.70
45115;DHT22;30877;43.706;10.780;2023-08-06T04:45:20;19.50;96.70
45115;DHT22;30877;43.706;10.780;2023-08-06T04:47:49;19.50;96.70
45115;DHT22;30877;43.706;10.780;2023-08-06T04:50:18;19.60;96.70
45115;DHT22;30877;43.706;10.780;2023-08-06T04:52:46;19.70;96.70
45115;DHT22;30877;43.706;10.780;2023-08-06T04:55:15;19.80;96.70
45115;DHT22;30877;43.706;10.780;2023-08-06T04:57:44;19.70;96.70
45115;DHT22;30877;43.706;10.780;2023-08-06T05:00:14;19.80;96.70
45115;DHT22;30877;43.706;10.780;2023-08-06T05:02:44;19.80;96.70
45115;DHT22;30877;43.706;10.780;2023-08-06T05:05:13;19.70;96.70
45115;DHT22;30877;43.706;10.780;2023-08-06T05:07:42;19.80;96.70
45115;DHT22;30877;43.706;10.780;2023-08-06T05:10:11;19.90;96.70
45115;DHT22;30877;43.706;10.780;2023-08-06T05:12:40;19.90;96.70
45115;DHT22;30877;43.706;10.780;2023-08-06T05:15:09;19.90;96.70
45115;DHT22;30877;43.706;10.780;2023-08-06T05:17:38;20.10;96.70
45115;DHT22;30877;43.706;10.780;2023-08-06T05:20:10;20.10;96.70
45115;DHT22;30877;43.706;10.780;2023-08-06T05:22:39;20.20;96.70
45115;DHT22;30877;43.706;10.780;2023-08-06T05:25:08;20.10;96.70
45115;DHT22;30877;43.706;10.780;2023-08-06T05:27:37;20.10;96.70
45115;DHT22;30877;43.706;10.780;2023-08-06T05:30:07;20.20;96.70
45115;DHT22;30877;43.706;10.780;2023-08-06T05:32:36;20.10;96.70
45115;DHT22;30877;43.706;10.780;2023-08-06T05:35:06;20.20;96.70
45115;DHT22;30877;43.706;10.780;2023-08-06T05:37:36;20.30;96.70
45115;DHT22;30877;43.706;10.780;2023-08-06T05:40:06;20.40;96.70
45115;DHT22;30877;43.706;10.780;2023-08-06T05:42:35;20.50;96.70
45115;DHT22;30877;43.706;10.780;2023-08-06T05:45:05;20.40;96.70
45115;DHT22;30877;43.706;10.780;2023-08-06T05:47:34;20.20;96.70
45115;DHT22;30877;43.706;10.780;2023-08-06T05:50:03;20.30;96.70
45115;DHT22;30877;43.706;10.780;2023-08-06T05:52:32;20.40;96.70
45115;DHT22;30877;43.706;10.780;2023-08-06T05:55:03;20.50;96.70
45115;DHT22;30877;43.706;10.780;2023-08-06T05:57:32;20.50;96.70
45115;DHT22;30877;43.706;10.780;2023-08-06T06:00:01;20.50;96.70
45115;DHT22;30877;43.706;10.780;2023-08-06T06:02:39;20.60;96.70
45115;DHT22;30877;43.706;10.780;2023-08-06T06:05:08;20.70;96.70
45115;DHT22;30877;43.706;10.780;2023-08-06T06:07:37;20.80;96.70
45115;DHT22;30877;43.706;10.780;2023-08-06T06:10:08;20.80;96.70
45115;DHT22;30877;43.706;10.780;2023-08-06T06:12:39;20.80;96.70
45115;DHT22;30877;43.706;10.780;2023-08-06T06:15:08;20.90;96.70
45115;DHT22;30877;43.706;10.780;2023-08-06T06:17:37;21.00;96.70
45115;DHT22;30877;43.706;10.780;2023-08-06T06:20:07;21.10;96.70
45115;DHT22;30877;43.706;10.780;2023-08-06T06:22:36;21.00;96.70
45115;DHT22;30877;43.706;10.780;2023-08-06T06:25:07;21.10;96.70
45115;DHT22;30877;43.706;10.780;2023-08-06T06:27:37;21.10;96.70
45115;DHT22;30877;43.706;10.780;2023-08-06T06:30:07;21.10;96.70
45115;DHT22;30877;43.706;10.780;2023-08-06T06:32:35;21.20;96.70
45115;DHT22;30877;43.706;10.780;2023-08-06T06:35:05;21.20;96.70
45115;DHT22;30877;43.706;10.780;2023-08-06T06:37:35;21.20;96.70
45115;DHT22;30877;43.706;10.780;2023-08-06T06:40:04;21.30;96.70
45115;DHT22;30877;43.706;10.780;2023-08-06T06:42:35;21.40;96.70
45115;DHT22;30877;43.706;10.780;2023-08-06T06:45:09;21.50;96.70
45115;DHT22;30877;43.706;10.780;2023-08-06T06:47:38;21.40;96.70
45115;DHT22;30877;43.706;10.780;2023-08-06T06:50:07;21.50;96.70
45115;DHT22;30877;43.706;10.780;2023-08-06T06:52:36;21.60;96.70
45115;DHT22;30877;43.706;10.780;2023-08-06T06:55:06;21.60;96.70
45115;DHT22;30877;43.706;10.780;2023-08-06T06:57:37;21.60;96.70
45115;DHT22;30877;43.706;10.780;2023-08-06T07:00:07;21.60;96.70
45115;DHT22;30877;43.706;10.780;2023-08-06T07:02:36;21.70;96.70
45115;DHT22;30877;43.706;10.780;2023-08-06T07:05:05;21.80;96.70
45115;DHT22;30877;43.706;10.780;2023-08-06T07:07:35;21.90;96.70
45115;DHT22;30877;43.706;10.780;2023-08-06T07:10:05;21.80;96.70
45115;DHT22;30877;43.706;10.780;2023-08-06T07:12:36;21.80;96.70
45115;DHT22;30877;43.706;10.780;2023-08-06T07:15:07;21.80;96.70
45115;DHT22;30877;43.706;10.780;2023-08-06T07:17:35;21.90;96.70
45115;DHT22;30877;43.706;10.780;2023-08-06T07:20:04;21.90;96.70
45115;DHT22;30877;43.706;10.780;2023-08-06T07:22:33;22.10;96.70
45115;DHT22;30877;43.706;10.780;2023-08-06T07:25:01;22.20;96.70
45115;DHT22;30877;43.706;10.780;2023-08-06T07:27:29;22.20;96.70
45115;DHT22;30877;43.706;10.780;2023-08-06T07:29:58;22.30;96.70
45115;DHT22;30877;43.706;10.780;2023-08-06T07:32:26;22.40;96.70
45115;DHT22;30877;43.706;10.780;2023-08-06T07:34:55;22.50;96.70
45115;DHT22;30877;43.706;10.780;2023-08-06T07:37:27;22.50;96.70
45115;DHT22;30877;43.706;10.780;2023-08-06T07:39:56;22.50;96.70
45115;DHT22;30877;43.706;10.780;2023-08-06T07:42:24;22.60;96.70
45115;DHT22;30877;43.706;10.780;2023-08-06T07:44:53;22.70;96.70
45115;DHT22;30877;43.706;10.780;2023-08-06T07:47:23;22.80;96.70
45115;DHT22;30877;43.706;10.780;2023-08-06T07:49:51;22.80;96.70
45115;DHT22;30877;43.706;10.780;2023-08-06T07:52:19;22.90;96.70
45115;DHT22;30877;43.706;10.780;2023-08-06T07:54:47;22.90;96.70
45115;DHT22;30877;43.706;10.780;2023-08-06T07:57:15;23.00;96.70
45115;DHT22;30877;43.706;10.780;2023-08-06T07:59:44;23.10;96.70
45115;DHT22;30877;43.706;10.780;2023-08-06T08:02:13;23.10;96.70
45115;DHT22;30877;43.706;10.780;2023-08-06T08:04:42;23.20;96.70
45115;DHT22;30877;43.706;10.780;2023-08-06T08:07:11;23.30;96.70
45115;DHT22;30877;43.706;10.780;2023-08-06T08:09:39;23.40;96.70
45115;DHT22;30877;43.706;10.780;2023-08-06T08:12:07;23.40;96.70
45115;DHT22;30877;43.706;10.780;2023-08-06T08:14:36;23.60;96.70
45115;DHT22;30877;43.706;10.780;2023-08-06T08:17:05;23.70;96.70
45115;DHT22;30877;43.706;10.780;2023-08-06T08:19:34;23.70;96.70
45115;DHT22;30877;43.706;10.780;2023-08-06T08:22:04;23.70;96.70
45115;DHT22;30877;43.706;10.780;2023-08-06T08:24:32;23.80;96.70
45115;DHT22;30877;43.706;10.780;2023-08-06T08:27:01;23.90;96.70
45115;DHT22;30877;43.706;10.780;2023-08-06T08:29:30;24.10;96.70
45115;DHT22;30877;43.706;10.780;2023-08-06T08:31:58;24.10;96.70
45115;DHT22;30877;43.706;10.780;2023-08-06T08:34:27;24.20;96.70
45115;DHT22;30877;43.706;10.780;2023-08-06T08:36:55;24.20;96.70
45115;DHT22;30877;43.706;10.780;2023-08-06T08:39:26;24.40;96.70
45115;DHT22;30877;43.706;10.780;2023-08-06T08:41:55;24.50;96.70
45115;DHT22;30877;43.706;10.780;2023-08-06T08:44:24;24.50;96.70
45115;DHT22;30877;43.706;10.780;2023-08-06T08:46:56;24.60;96.70
45115;DHT22;30877;43.706;10.780;2023-08-06T08:49:27;24.70;96.70
45115;DHT22;30877;43.706;10.780;2023-08-06T08:51:56;24.60;96.70
45115;DHT22;30877;43.706;10.780;2023-08-06T08:54:27;24.60;96.70
45115;DHT22;30877;43.706;10.780;2023-08-06T08:56:57;24.80;96.70
45115;DHT22;30877;43.706;10.780;2023-08-06T08:59:27;24.90;96.70
45115;DHT22;30877;43.706;10.780;2023-08-06T09:01:56;25.10;96.70
45115;DHT22;30877;43.706;10.780;2023-08-06T09:04:27;25.00;96.70
45115;DHT22;30877;43.706;10.780;2023-08-06T09:07:00;25.00;96.70
45115;DHT22;30877;43.706;10.780;2023-08-06T09:09:34;24.90;96.70
45115;DHT22;30877;43.706;10.780;2023-08-06T09:12:11;24.90;96.70
45115;DHT22;30877;43.706;10.780;2023-08-06T09:14:40;25.10;96.70
45115;DHT22;30877;43.706;10.780;2023-08-06T09:17:09;25.30;96.70
45115;DHT22;30877;43.706;10.780;2023-08-06T09:19:42;25.70;96.70
45115;DHT22;30877;43.706;10.780;2023-08-06T09:22:16;25.80;96.70
45115;DHT22;30877;43.706;10.780;2023-08-06T09:24:46;25.70;96.70
45115;DHT22;30877;43.706;10.780;2023-08-06T09:27:15;25.60;96.70
45115;DHT22;30877;43.706;10.780;2023-08-06T09:29:45;25.50;96.70
45115;DHT22;30877;43.706;10.780;2023-08-06T09:32:14;25.50;96.70
45115;DHT22;30877;43.706;10.780;2023-08-06T09:34:43;25.60;96.70
45115;DHT22;30877;43.706;10.780;2023-08-06T09:37:12;25.90;96.70
45115;DHT22;30877;43.706;10.780;2023-08-06T09:39:40;26.10;96.70
45115;DHT22;30877;43.706;10.780;2023-08-06T09:42:15;26.00;96.70
45115;DHT22;30877;43.706;10.780;2023-08-06T09:44:44;26.00;96.70
45115;DHT22;30877;43.706;10.780;2023-08-06T09:47:12;26.20;96.70
45115;DHT22;30877;43.706;10.780;2023-08-06T09:49:45;26.00;96.70
45115;DHT22;30877;43.706;10.780;2023-08-06T09:52:14;26.10;96.70
45115;DHT22;30877;43.706;10.780;2023-08-06T09:54:44;26.10;96.70
45115;DHT22;30877;43.706;10.780;2023-08-06T09:57:16;26.10;96.70
45115;DHT22;30877;43.706;10.780;2023-08-06T09:59:45;26.10;96.70
45115;DHT22;30877;43.706;10.780;2023-08-06T10:02:15;26.00;96.70
45115;DHT22;30877;43.706;10.780;2023-08-06T10:04:46;26.20;96.70
45115;DHT22;30877;43.706;10.780;2023-08-06T10:07:22;26.50;96.70
45115;DHT22;30877;43.706;10.780;2023-08-06T10:09:52;26.80;96.70
45115;DHT22;30877;43.706;10.780;2023-08-06T10:12:23;26.70;96.70
45115;DHT22;30877;43.706;10.780;2023-08-06T10:14:55;26.80;96.70
45115;DHT22;30877;43.706;10.780;2023-08-06T10:17:24;26.70;96.70
45115;DHT22;30877;43.706;10.780;2023-08-06T10:20:12;26.60;96.70
45115;DHT22;30877;43.706;10.780;2023-08-06T10:22:43;26.60;96.70
45115;DHT22;30877;43.706;10.780;2023-08-06T10:25:17;26.60;96.70
45115;DHT22;30877;43.706;10.780;2023-08-06T10:27:55;26.70;96.70
45115;DHT22;30877;43.706;10.780;2023-08-06T10:30:25;26.90;96.70
45115;DHT22;30877;43.706;10.780;2023-08-06T10:32:58;26.90;96.70
45115;DHT22;30877;43.706;10.780;2023-08-06T10:35:34;27.10;96.70
45115;DHT22;30877;43.706;10.780;2023-08-06T10:38:08;27.40;96.70
45115;DHT22;30877;43.706;10.780;2023-08-06T10:40:39;27.30;96.70
45115;DHT22;30877;43.706;10.780;2023-08-06T10:43:25;27.30;96.70
45115;DHT22;30877;43.706;10.780;2023-08-06T10:45:55;27.50;96.70
45115;DHT22;30877;43.706;10.780;2023-08-06T10:48:31;27.50;96.70
45115;DHT22;30877;43.706;10.780;2023-08-06T10:51:00;27.60;96.70
45115;DHT22;30877;43.706;10.780;2023-08-06T10:53:30;27.70;96.70
45115;DHT22;30877;43.706;10.780;2023-08-06T10:56:01;27.90;96.70
45115;DHT22;30877;43.706;10.780;2023-08-06T10:58:34;27.80;96.70
45115;DHT22;30877;43.706;10.780;2023-08-06T11:01:03;27.80;96.70
45115;DHT22;30877;43.706;10.780;2023-08-06T11:03:32;27.70;96.70
45115;DHT22;30877;43.706;10.780;2023-08-06T11:06:01;27.80;96.70
45115;DHT22;30877;43.706;10.780;2023-08-06T11:08:34;27.90;96.70
45115;DHT22;30877;43.706;10.780;2023-08-06T11:11:10;28.20;96.70
45115;DHT22;30877;43.706;10.780;2023-08-06T11:13:44;28.50;96.70
45115;DHT22;30877;43.706;10.780;2023-08-06T11:16:17;28.60;96.70
45115;DHT22;30877;43.706;10.780;2023-08-06T11:18:47;28.40;96.70
45115;DHT22;30877;43.706;10.780;2023-08-06T11:21:19;28.40;96.70
45115;DHT22;30877;43.706;10.780;2023-08-06T11:23:47;28.50;96.70
45115;DHT22;30877;43.706;10.780;2023-08-06T11:26:19;28.40;96.70
45115;DHT22;30877;43.706;10.780;2023-08-06T11:28:49;28.60;96.70
45115;DHT22;30877;43.706;10.780;2023-08-06T11:31:21;28.80;96.70
45115;DHT22;30877;43.706;10.780;2023-08-06T11:33:50;28.90;96.70
45115;DHT22;30877;43.706;10.780;2023-08-06T11:36:29;28.90;96.70
45115;DHT22;30877;43.706;10.780;2023-08-06T11:38:59;29.00;96.70
45115;DHT22;30877;43.706;10.780;2023-08-06T11:41:28;28.80;96.70
45115;DHT22;30877;43.706;10.780;2023-08-06T11:43:59;28.90;96.70
45115;DHT22;30877;43.706;10.780;2023-08-06T11:46:27;29.00;96.70
45115;DHT22;30877;43.706;10.780;2023-08-06T11:48:57;29.30;96.70
45115;DHT22;30877;43.706;10.780;2023-08-06T11:51:26;29.20;96.70
45115;DHT22;30877;43.706;10.780;2023-08-06T11:53:56;29.00;96.70
45115;DHT22;30877;43.706;10.780;2023-08-06T11:56:25;29.10;96.70
45115;DHT22;30877;43.706;10.780;2023-08-06T11:58:55;29.20;96.70
45115;DHT22;30877;43.706;10.780;2023-08-06T12:01:26;29.00;96.70
45115;DHT22;30877;43.706;10.780;2023-08-06T12:03:59;29.00;96.70
45115;DHT22;30877;43.706;10.780;2023-08-06T12:06:28;29.20;96.70
45115;DHT22;30877;43.706;10.780;2023-08-06T12:08:56;29.20;96.70
45115;DHT22;30877;43.706;10.780;2023-08-06T12:11:24;29.20;96.70
45115;DHT22;30877;43.706;10.780;2023-08-06T12:13:54;29.20;96.70
45115;DHT22;30877;43.706;10.780;2023-08-06T12:16:26;29.00;96.70
45115;DHT22;30877;43.706;10.780;2023-08-06T12:18:54;29.00;96.70
45115;DHT22;30877;43.706;10.780;2023-08-06T12:21:23;28.90;96.70
45115;DHT22;30877;43.706;10.780;2023-08-06T12:23:51;29.00;96.70
45115;DHT22;30877;43.706;10.780;2023-08-06T12:26:19;29.00;96.70
45115;DHT22;30877;43.706;10.780;2023-08-06T12:28:48;29.10;96.70
45115;DHT22;30877;43.706;10.780;2023-08-06T12:31:17;29.30;96.70
45115;DHT22;30877;43.706;10.780;2023-08-06T12:33:47;29.50;96.70
45115;DHT22;30877;43.706;10.780;2023-08-06T12:36:15;29.40;96.70
45115;DHT22;30877;43.706;10.780;2023-08-06T12:38:43;29.50;96.70
45115;DHT22;30877;43.706;10.780;2023-08-06T12:41:12;29.60;96.70
45115;DHT22;30877;43.706;10.780;2023-08-06T12:43:41;29.60;96.70
45115;DHT22;30877;43.706;10.780;2023-08-06T12:46:10;29.40;96.70
45115;DHT22;30877;43.706;10.780;2023-08-06T12:48:38;29.50;96.70
45115;DHT22;30877;43.706;10.780;2023-08-06T12:51:08;29.60;96.70
45115;DHT22;30877;43.706;10.780;2023-08-06T12:53:36;29.30;96.70
45115;DHT22;30877;43.706;10.780;2023-08-06T12:56:05;29.30;96.70
45115;DHT22;30877;43.706;10.780;2023-08-06T12:58:33;29.20;96.70
45115;DHT22;30877;43.706;10.780;2023-08-06T13:01:02;29.10;96.70
45115;DHT22;30877;43.706;10.780;2023-08-06T13:03:30;29.00;96.70
45115;DHT22;30877;43.706;10.780;2023-08-06T13:06:00;28.80;96.70
45115;DHT22;30877;43.706;10.780;2023-08-06T13:08:30;28.80;96.70
45115;DHT22;30877;43.706;10.780;2023-08-06T13:10:58;28.60;96.70
45115;DHT22;30877;43.706;10.780;2023-08-06T13:13:26;28.50;96.70
45115;DHT22;30877;43.706;10.780;2023-08-06T13:15:55;28.70;96.70
45115;DHT22;30877;43.706;10.780;2023-08-06T13:18:23;28.60;96.70
45115;DHT22;30877;43.706;10.780;2023-08-06T13:20:53;28.50;96.70
45115;DHT22;30877;43.706;10.780;2023-08-06T13:23:22;28.40;96.70
45115;DHT22;30877;43.706;10.780;2023-08-06T13:25:52;28.20;96.70
45115;DHT22;30877;43.706;10.780;2023-08-06T13:28:21;28.30;96.70
45115;DHT22;30877;43.706;10.780;2023-08-06T13:30:49;28.60;96.70
45115;DHT22;30877;43.706;10.780;2023-08-06T13:33:17;28.70;96.70
45115;DHT22;30877;43.706;10.780;2023-08-06T13:35:46;28.70;96.70
45115;DHT22;30877;43.706;10.780;2023-08-06T13:38:14;29.00;96.70
45115;DHT22;30877;43.706;10.780;2023-08-06T13:40:42;28.60;96.70
45115;DHT22;30877;43.706;10.780;2023-08-06T13:43:14;28.60;96.70
45115;DHT22;30877;43.706;10.780;2023-08-06T13:45:45;28.60;96.70
45115;DHT22;30877;43.706;10.780;2023-08-06T13:48:13;28.60;96.70
45115;DHT22;30877;43.706;10.780;2023-08-06T13:50:41;28.60;96.70
45115;DHT22;30877;43.706;10.780;2023-08-06T13:53:10;28.60;96.70
45115;DHT22;30877;43.706;10.780;2023-08-06T13:55:38;28.70;96.70
45115;DHT22;30877;43.706;10.780;2023-08-06T13:58:07;28.70;96.70
45115;DHT22;30877;43.706;10.780;2023-08-06T14:00:38;28.60;96.70
45115;DHT22;30877;43.706;10.780;2023-08-06T14:03:06;28.70;96.70
45115;DHT22;30877;43.706;10.780;2023-08-06T14:05:34;28.90;96.70
45115;DHT22;30877;43.706;10.780;2023-08-06T14:08:03;28.90;96.70
45115;DHT22;30877;43.706;10.780;2023-08-06T14:10:31;28.80;96.70
45115;DHT22;30877;43.706;10.780;2023-08-06T14:13:00;28.80;96.70
45115;DHT22;30877;43.706;10.780;2023-08-06T14:15:39;29.00;96.70
45115;DHT22;30877;43.706;10.780;2023-08-06T14:18:08;28.80;96.70
45115;DHT22;30877;43.706;10.780;2023-08-06T14:20:36;28.90;96.70
45115;DHT22;30877;43.706;10.780;2023-08-06T14:23:05;29.00;96.70
45115;DHT22;30877;43.706;10.780;2023-08-06T14:25:34;29.00;96.70
45115;DHT22;30877;43.706;10.780;2023-08-06T14:28:02;29.20;96.70
45115;DHT22;30877;43.706;10.780;2023-08-06T14:30:31;29.10;96.70
45115;DHT22;30877;43.706;10.780;2023-08-06T14:33:01;29.00;96.70
45115;DHT22;30877;43.706;10.780;2023-08-06T14:35:51;29.10;96.70
45115;DHT22;30877;43.706;10.780;2023-08-06T14:38:19;29.40;96.70
45115;DHT22;30877;43.706;10.780;2023-08-06T14:40:48;29.30;96.70
45115;DHT22;30877;43.706;10.780;2023-08-06T14:43:16;29.30;96.70
45115;DHT22;30877;43.706;10.780;2023-08-06T14:45:45;29.40;96.70
45115;DHT22;30877;43.706;10.780;2023-08-06T14:48:15;29.70;96.70
45115;DHT22;30877;43.706;10.780;2023-08-06T14:50:43;29.80;96.70
45115;DHT22;30877;43.706;10.780;2023-08-06T14:53:12;29.70;96.70
45115;DHT22;30877;43.706;10.780;2023-08-06T14:55:41;30.20;96.70
45115;DHT22;30877;43.706;10.780;2023-08-06T14:58:09;30.50;96.70
45115;DHT22;30877;43.706;10.780;2023-08-06T15:00:38;30.20;96.70
45115;DHT22;30877;43.706;10.780;2023-08-06T15:03:06;30.20;96.70
45115;DHT22;30877;43.706;10.780;2023-08-06T15:05:36;30.50;96.70
45115;DHT22;30877;43.706;10.780;2023-08-06T15:08:05;30.50;96.70
45115;DHT22;30877;43.706;10.780;2023-08-06T15:10:33;30.70;96.70
45115;DHT22;30877;43.706;10.780;2023-08-06T15:13:02;30.50;96.70
45115;DHT22;30877;43.706;10.780;2023-08-06T15:15:30;30.70;96.70
45115;DHT22;30877;43.706;10.780;2023-08-06T15:17:59;30.70;96.70
45115;DHT22;30877;43.706;10.780;2023-08-06T15:20:27;30.70;96.70
45115;DHT22;30877;43.706;10.780;2023-08-06T15:22:57;30.90;96.70
45115;DHT22;30877;43.706;10.780;2023-08-06T15:25:26;31.20;96.70
45115;DHT22;30877;43.706;10.780;2023-08-06T15:27:54;31.20;96.70
45115;DHT22;30877;43.706;10.780;2023-08-06T15:30:22;31.00;96.70
45115;DHT22;30877;43.706;10.780;2023-08-06T15:32:51;30.90;96.70